Terminal Aerodrome Forecast
Issued by NWS

Home | Current Version | Previous Version | Text Only | Print | Product List | Glossary On
Versions: 1 2 3 4 5 6 7 8 9 10 11 12 13 14 15
000
FTUS44 KLIX 120534
TAFGPT
TAF
KGPT 120534Z 1206/1306 26006KT P6SM SKC WS020/27035KT
     FM121100 30008KT P6SM SKC
     FM121400 34011G20KT P6SM SKC
     FM130100 33007KT P6SM SKC=

USA.gov is the U.S. government's official web portal to all federal, state and local government web resources and services.